createdAt,value
2019-03-10T00:00:17.895Z,5.53
2019-03-10T00:01:17.909Z,5.4
2019-03-10T00:02:17.927Z,5.46
2019-03-10T00:03:17.939Z,5.48
2019-03-10T00:04:17.954Z,5.42
2019-03-10T00:05:17.968Z,5.4
2019-03-10T00:06:17.990Z,5.36
2019-03-10T00:07:32.677Z,5.28
2019-03-10T00:09:18.050Z,5.38
2019-03-10T00:10:18.050Z,5.25
2019-03-10T00:11:32.723Z,5.38
2019-03-10T00:12:18.076Z,5.31
2019-03-10T00:13:32.750Z,5.28
2019-03-10T00:14:32.767Z,5.36
2019-03-10T00:15:18.119Z,5.35
2019-03-10T00:16:18.136Z,5.33
2019-03-10T00:17:18.151Z,5.33
2019-03-10T00:18:18.176Z,5.3
2019-03-10T00:19:18.177Z,5.31
2019-03-10T00:20:18.192Z,5.33
2019-03-10T00:21:18.206Z,5.25
2019-03-10T00:22:18.224Z,5.25
2019-03-10T00:24:18.255Z,5.27
2019-03-10T00:25:18.268Z,5.25
2019-03-10T00:26:32.946Z,5.22
2019-03-10T00:27:18.304Z,5.3
2019-03-10T00:28:18.318Z,5.31
2019-03-10T00:29:18.091Z,5.25
2019-03-10T00:30:33.006Z,5.18
2019-03-10T00:31:18.368Z,5.15
2019-03-10T00:32:18.370Z,5.18
2019-03-10T00:33:18.388Z,5.18
2019-03-10T00:34:19.290Z,5.21
2019-03-10T00:35:18.417Z,5.15
2019-03-10T00:36:18.432Z,5.15
2019-03-10T00:37:18.468Z,5.13
2019-03-10T00:38:18.501Z,5.15
2019-03-10T00:39:18.485Z,5.21
2019-03-10T00:40:18.508Z,5.2
2019-03-10T00:41:18.505Z,5.25
2019-03-10T00:42:33.182Z,5.21
2019-03-10T00:43:18.536Z,5.18
2019-03-10T00:44:18.551Z,5.22
2019-03-10T00:45:18.322Z,5.22
2019-03-10T00:46:33.240Z,5.22
2019-03-10T00:47:18.594Z,5.27
2019-03-10T00:48:18.608Z,5.31
2019-03-10T00:49:18.641Z,5.33
2019-03-10T00:50:18.642Z,5.33
2019-03-10T00:51:18.654Z,5.33
2019-03-10T00:52:18.675Z,5.36
2019-03-10T00:53:18.691Z,5.35
2019-03-10T00:54:18.733Z,5.4
2019-03-10T00:55:18.719Z,5.3
2019-03-10T00:56:18.731Z,5.38
2019-03-10T00:57:18.744Z,5.31
2019-03-10T00:58:33.418Z,5.33
2019-03-10T00:59:18.774Z,5.36
2019-03-10T01:00:18.792Z,5.36
2019-03-10T01:01:18.806Z,5.33
2019-03-10T01:02:33.480Z,5.27
2019-03-10T01:03:18.826Z,5.31
2019-03-10T01:04:18.842Z,5.3
2019-03-10T01:05:18.858Z,5.33
2019-03-10T01:06:18.874Z,5.15
2019-03-10T01:07:18.901Z,5.22
2019-03-10T01:08:18.903Z,5.18
2019-03-10T01:09:18.932Z,5.25
2019-03-10T01:10:18.934Z,5.17
2019-03-10T01:11:18.696Z,5.13
2019-03-10T01:13:18.975Z,5.17
2019-03-10T01:14:19.457Z,5.1
2019-03-10T01:15:19.108Z,5.15
2019-03-10T01:16:19.051Z,5.21
2019-03-10T01:17:33.697Z,5.21
2019-03-10T01:18:19.055Z,5.12
2019-03-10T01:19:19.063Z,5.12
2019-03-10T01:20:18.834Z,5.17
2019-03-10T01:21:19.093Z,5.13
2019-03-10T01:22:19.109Z,5.18
2019-03-10T01:23:19.223Z,5.13
2019-03-10T01:24:19.145Z,5.1
2019-03-10T01:26:19.167Z,5.1
2019-03-10T01:27:19.185Z,5.18
2019-03-10T01:28:19.196Z,5.2
2019-03-10T01:29:19.218Z,5.2
2019-03-10T01:30:19.229Z,5.1
2019-03-10T01:31:19.241Z,5.02
2019-03-10T01:32:19.257Z,5.1
2019-03-10T01:33:19.270Z,5.1
2019-03-10T01:34:19.286Z,4.96
2019-03-10T01:35:19.305Z,5.02
2019-03-10T01:36:19.067Z,5.07
2019-03-10T01:37:19.429Z,5.03
2019-03-10T01:38:19.344Z,4.91
2019-03-10T01:39:19.358Z,5.1
2019-03-10T01:40:19.372Z,5.07
2019-03-10T01:41:19.386Z,5.04
2019-03-10T01:42:19.400Z,5.06
2019-03-10T01:43:19.414Z,5.06
2019-03-10T01:44:19.430Z,4.94
2019-03-10T01:45:19.447Z,5.03
2019-03-10T01:46:34.122Z,4.85
2019-03-10T01:47:19.474Z,4.86
2019-03-10T01:48:19.491Z,4.84
2019-03-10T01:49:34.170Z,4.96
2019-03-10T01:50:19.629Z,4.91
2019-03-10T01:51:19.593Z,4.88
2019-03-10T01:52:19.547Z,4.94
2019-03-10T01:53:44.654Z,4.91
2019-03-10T01:54:19.846Z,4.96
2019-03-10T01:55:19.592Z,4.84
2019-03-10T01:56:19.605Z,4.92
2019-03-10T01:57:19.623Z,4.88
2019-03-10T01:58:19.636Z,5.04
2019-03-10T01:59:19.651Z,5.1
2019-03-10T02:00:19.670Z,5.21
2019-03-10T02:01:19.679Z,5.27
2019-03-10T02:02:27.923Z,5.33
2019-03-10T02:03:19.710Z,5.33
2019-03-10T02:04:19.722Z,5.39
2019-03-10T02:05:34.430Z,5.38
2019-03-10T02:06:19.754Z,5.35
2019-03-10T02:07:19.765Z,5.35
2019-03-10T02:08:19.785Z,5.35
2019-03-10T02:09:19.795Z,5.33
2019-03-10T02:10:19.810Z,5.22
2019-03-10T02:11:19.829Z,5.27
2019-03-10T02:12:19.841Z,5.17
2019-03-10T02:13:19.864Z,5.18
2019-03-10T02:14:34.535Z,5.06
2019-03-10T02:15:19.893Z,5
2019-03-10T02:16:19.908Z,5.06
2019-03-10T02:17:34.579Z,4.92
2019-03-10T02:18:34.639Z,4.94
2019-03-10T02:19:19.945Z,4.92
2019-03-10T02:20:19.957Z,5.02
2019-03-10T02:21:34.633Z,4.92
2019-03-10T02:22:19.987Z,4.96
2019-03-10T02:24:28.488Z,5
2019-03-10T02:25:19.780Z,4.91
2019-03-10T02:26:20.049Z,4.92
2019-03-10T02:27:20.059Z,4.88
2019-03-10T02:28:20.073Z,4.85
2019-03-10T02:29:20.087Z,4.91
2019-03-10T02:30:20.129Z,4.88
2019-03-10T02:31:20.126Z,4.94
2019-03-10T02:32:20.151Z,4.91
2019-03-10T02:33:20.160Z,4.88
2019-03-10T02:34:20.163Z,4.84
2019-03-10T02:35:20.281Z,4.8
2019-03-10T02:36:20.208Z,4.78
2019-03-10T02:37:34.911Z,4.8
2019-03-10T02:38:20.232Z,4.7
2019-03-10T02:39:20.314Z,4.73
2019-03-10T02:40:20.291Z,4.7
2019-03-10T02:41:20.275Z,4.77
2019-03-10T02:42:20.281Z,4.84
2019-03-10T02:43:20.314Z,4.8
2019-03-10T02:44:20.307Z,4.72
2019-03-10T02:46:20.356Z,4.72
2019-03-10T02:47:20.362Z,4.75
2019-03-10T02:48:20.407Z,4.85
2019-03-10T02:49:20.417Z,4.67
2019-03-10T02:50:20.408Z,4.72
2019-03-10T02:51:20.433Z,4.69
2019-03-10T02:52:35.090Z,4.7
2019-03-10T02:53:20.448Z,4.77
2019-03-10T02:54:20.470Z,4.8
2019-03-10T02:55:20.480Z,4.77
2019-03-10T02:56:20.501Z,4.75
2019-03-10T02:57:20.500Z,4.7
2019-03-10T02:58:20.515Z,4.82
2019-03-10T02:59:20.539Z,4.82
2019-03-10T03:01:20.561Z,4.78
2019-03-10T03:02:20.620Z,4.78
2019-03-10T03:04:20.604Z,4.77
2019-03-10T03:05:20.616Z,4.75
2019-03-10T03:06:20.635Z,4.75
2019-03-10T03:07:20.665Z,4.7
2019-03-10T03:08:21.880Z,4.86
2019-03-10T03:09:20.698Z,4.82
2019-03-10T03:10:20.694Z,4.73
2019-03-10T03:11:20.727Z,4.77
2019-03-10T03:12:20.719Z,4.8
2019-03-10T03:13:20.747Z,4.7
2019-03-10T03:14:20.770Z,4.84
2019-03-10T03:15:20.783Z,4.72
2019-03-10T03:16:20.779Z,4.7
2019-03-10T03:17:20.813Z,4.7
2019-03-10T03:18:35.543Z,4.69
2019-03-10T03:19:20.819Z,4.67
2019-03-10T03:20:20.835Z,4.66
2019-03-10T03:21:20.863Z,4.69
2019-03-10T03:22:20.877Z,4.72
2019-03-10T03:23:20.891Z,4.69
2019-03-10T03:24:35.556Z,4.65
2019-03-10T03:25:20.921Z,4.67
2019-03-10T03:26:20.694Z,4.66
2019-03-10T03:27:20.957Z,4.67
2019-03-10T03:28:20.946Z,4.73
2019-03-10T03:29:20.977Z,4.75
2019-03-10T03:30:21.046Z,4.66
2019-03-10T03:32:35.728Z,4.7
2019-03-10T03:33:21.051Z,4.63
2019-03-10T03:35:21.052Z,4.66
2019-03-10T03:36:21.197Z,4.7
2019-03-10T03:37:21.100Z,4.72
2019-03-10T03:38:21.092Z,4.69
2019-03-10T03:39:21.114Z,4.75
2019-03-10T03:40:35.792Z,4.67
2019-03-10T03:41:21.165Z,4.66
2019-03-10T03:42:21.180Z,4.67
2019-03-10T03:43:21.169Z,4.73
2019-03-10T03:44:21.188Z,4.77
2019-03-10T03:45:21.208Z,4.69
2019-03-10T03:46:20.961Z,4.77
2019-03-10T03:48:21.248Z,4.73
2019-03-10T03:49:35.919Z,4.62
2019-03-10T03:50:21.294Z,4.7
2019-03-10T03:51:21.042Z,4.63
2019-03-10T03:52:21.304Z,4.7
2019-03-10T03:53:35.972Z,4.72
2019-03-10T03:54:21.079Z,4.67
2019-03-10T03:55:21.365Z,4.8
2019-03-10T03:57:36.038Z,4.72
2019-03-10T03:59:21.398Z,4.67
2019-03-10T04:00:21.415Z,4.72
2019-03-10T04:01:21.431Z,4.8
2019-03-10T04:02:21.479Z,4.8
2019-03-10T04:03:21.454Z,4.7
2019-03-10T04:04:21.528Z,4.72
2019-03-10T04:05:21.521Z,4.72
2019-03-10T04:06:21.534Z,4.73
2019-03-10T04:07:21.522Z,4.8
2019-03-10T04:08:21.523Z,4.85
2019-03-10T04:09:21.553Z,4.78
2019-03-10T04:10:21.554Z,4.7
2019-03-10T04:11:21.568Z,4.7
2019-03-10T04:13:21.596Z,4.82
2019-03-10T04:14:21.621Z,4.75
2019-03-10T04:15:21.635Z,4.82
2019-03-10T04:16:21.642Z,4.77
2019-03-10T04:17:21.690Z,4.77
2019-03-10T04:18:21.681Z,4.78
2019-03-10T04:19:21.756Z,4.8
2019-03-10T04:20:21.718Z,4.72
2019-03-10T04:21:21.486Z,4.69
2019-03-10T04:22:21.730Z,4.67
2019-03-10T04:23:21.776Z,4.75
2019-03-10T04:24:21.760Z,4.67
2019-03-10T04:25:21.774Z,4.8
2019-03-10T04:26:21.789Z,4.88
2019-03-10T04:27:36.461Z,4.88
2019-03-10T04:28:21.815Z,4.86
2019-03-10T04:29:24.180Z,4.78
2019-03-10T04:30:21.848Z,4.78
2019-03-10T04:31:21.863Z,4.78
2019-03-10T04:32:21.878Z,4.75
2019-03-10T04:33:21.880Z,4.84
2019-03-10T04:34:21.898Z,4.7
2019-03-10T04:35:21.920Z,4.73
2019-03-10T04:36:21.931Z,4.72
2019-03-10T04:37:22.045Z,4.84
2019-03-10T04:39:36.633Z,4.96
2019-03-10T04:40:21.981Z,5.04
2019-03-10T04:41:22.001Z,5.04
2019-03-10T04:42:22.012Z,4.94
2019-03-10T04:43:22.026Z,4.96
2019-03-10T04:44:22.042Z,5.03
2019-03-10T04:45:22.056Z,5.09
2019-03-10T04:47:22.091Z,5.15
2019-03-10T04:48:22.109Z,5.18
2019-03-10T04:49:22.128Z,5.22
2019-03-10T04:51:22.142Z,5.35
2019-03-10T04:52:22.161Z,5.43
2019-03-10T04:53:22.175Z,5.43
2019-03-10T04:54:22.188Z,5.45
2019-03-10T04:55:22.199Z,5.43
2019-03-10T04:56:22.218Z,5.42
2019-03-10T04:57:22.254Z,5.4
2019-03-10T04:58:22.242Z,5.43
2019-03-10T04:59:36.925Z,5.48
2019-03-10T05:00:22.272Z,5.53
2019-03-10T05:01:22.287Z,5.53
2019-03-10T05:02:22.301Z,5.53
2019-03-10T05:03:22.316Z,5.54
2019-03-10T05:04:22.334Z,5.61
2019-03-10T05:05:22.351Z,5.64
2019-03-10T05:06:22.359Z,5.58
2019-03-10T05:07:22.378Z,5.58
2019-03-10T05:08:22.391Z,5.65
2019-03-10T05:09:22.408Z,5.68
2019-03-10T05:10:22.421Z,5.68
2019-03-10T05:11:22.450Z,5.78
2019-03-10T05:12:37.111Z,5.81
2019-03-10T05:13:22.465Z,5.68
2019-03-10T05:15:37.167Z,5.67
2019-03-10T05:16:22.519Z,5.68
2019-03-10T05:17:22.521Z,5.75
2019-03-10T05:18:22.535Z,5.85
2019-03-10T05:19:22.555Z,5.76
2019-03-10T05:20:22.565Z,5.82
2019-03-10T05:21:22.586Z,5.79
2019-03-10T05:22:22.597Z,5.85
2019-03-10T05:23:22.614Z,5.83
2019-03-10T05:24:22.623Z,5.83
2019-03-10T05:25:22.650Z,5.79
2019-03-10T05:26:37.320Z,5.82
2019-03-10T05:27:22.679Z,5.82
2019-03-10T05:28:22.788Z,5.85
2019-03-10T05:29:22.701Z,5.85
2019-03-10T05:30:22.722Z,5.93
2019-03-10T05:31:37.391Z,5.89
2019-03-10T05:32:22.743Z,5.83
2019-03-10T05:33:22.789Z,5.67
2019-03-10T05:34:22.773Z,5.72
2019-03-10T05:35:22.789Z,5.72
2019-03-10T05:37:22.836Z,5.67
2019-03-10T05:38:22.837Z,5.76
2019-03-10T05:39:22.847Z,5.72
2019-03-10T05:40:22.872Z,5.61
2019-03-10T05:41:22.883Z,5.57
2019-03-10T05:43:37.669Z,5.4
2019-03-10T05:44:37.584Z,5.42
2019-03-10T05:45:22.938Z,5.43
2019-03-10T05:46:22.948Z,5.38
2019-03-10T05:47:37.649Z,5.43
2019-03-10T05:48:22.989Z,5.49
2019-03-10T05:49:23.049Z,5.39
2019-03-10T05:50:23.013Z,5.54
2019-03-10T05:51:23.025Z,5.58
2019-03-10T05:52:23.043Z,5.54
2019-03-10T05:53:23.065Z,5.58
2019-03-10T05:54:23.088Z,5.71
2019-03-10T05:55:23.085Z,5.78
2019-03-10T05:57:23.118Z,5.72
2019-03-10T05:58:37.793Z,5.81
2019-03-10T05:59:23.148Z,5.79
2019-03-10T06:00:23.162Z,5.86
2019-03-10T06:01:23.183Z,5.86
2019-03-10T06:02:37.854Z,5.9
2019-03-10T06:03:23.234Z,5.89
2019-03-10T06:05:23.235Z,5.91
2019-03-10T06:06:23.253Z,5.97
2019-03-10T06:07:23.265Z,5.94
2019-03-10T06:08:23.279Z,5.97
2019-03-10T06:09:23.295Z,5.91
2019-03-10T06:10:23.310Z,5.96
2019-03-10T06:12:23.344Z,5.94
2019-03-10T06:14:23.373Z,5.93
2019-03-10T06:15:23.386Z,5.83
2019-03-10T06:16:23.399Z,5.81
2019-03-10T06:17:24.036Z,5.82
2019-03-10T06:18:23.434Z,5.81
2019-03-10T06:20:23.466Z,5.71
2019-03-10T06:21:23.488Z,5.71
2019-03-10T06:22:23.493Z,5.71
2019-03-10T06:23:23.550Z,5.68
2019-03-10T06:24:23.531Z,5.72
2019-03-10T06:25:23.554Z,5.71
2019-03-10T06:26:23.554Z,5.65
2019-03-10T06:27:23.569Z,5.6
2019-03-10T06:29:23.601Z,5.48
2019-03-10T06:30:38.280Z,5.48
2019-03-10T06:31:23.640Z,5.46
2019-03-10T06:32:23.654Z,5.4
2019-03-10T06:33:23.738Z,5.4
2019-03-10T06:34:38.343Z,5.43
2019-03-10T06:35:23.794Z,5.4
2019-03-10T06:36:23.715Z,5.49
2019-03-10T06:37:23.721Z,5.45
2019-03-10T06:38:23.738Z,5.46
2019-03-10T06:39:23.758Z,5.56
2019-03-10T06:40:34.041Z,5.72
2019-03-10T06:41:23.782Z,5.78
2019-03-10T06:42:23.800Z,6.04
2019-03-10T06:43:23.569Z,6.19
2019-03-10T06:44:25.812Z,6.41
2019-03-10T06:45:23.950Z,6.49
2019-03-10T06:46:38.598Z,6.71
2019-03-10T06:47:38.551Z,6.88
2019-03-10T06:48:23.909Z,7.05
2019-03-10T06:49:23.950Z,7.23
2019-03-10T06:50:38.609Z,7.39
2019-03-10T06:51:24.048Z,7.45
2019-03-10T06:52:23.995Z,7.43
2019-03-10T06:54:38.699Z,7.6
2019-03-10T06:55:24.045Z,7.75
2019-03-10T06:56:24.066Z,7.69
2019-03-10T06:58:23.866Z,7.86
2019-03-10T07:00:24.154Z,7.9
2019-03-10T07:01:24.181Z,7.85
2019-03-10T07:02:24.191Z,8.07
2019-03-10T07:03:24.214Z,8.16
2019-03-10T07:04:24.232Z,8.2
2019-03-10T07:05:24.255Z,8.16
2019-03-10T07:06:38.946Z,8.2
2019-03-10T07:07:24.293Z,8.33
2019-03-10T07:08:24.324Z,8.36
2019-03-10T07:09:24.336Z,8.41
2019-03-10T07:10:24.358Z,8.41
2019-03-10T07:11:24.379Z,8.43
2019-03-10T07:12:24.403Z,8.36
2019-03-10T07:13:24.418Z,8.44
2019-03-10T07:14:24.439Z,8.43
2019-03-10T07:15:24.560Z,8.44
2019-03-10T07:16:24.495Z,8.47
2019-03-10T07:17:24.520Z,8.41
2019-03-10T07:18:24.533Z,8.61
2019-03-10T07:19:24.552Z,8.65
2019-03-10T07:20:24.565Z,8.61
2019-03-10T07:21:24.591Z,8.63
2019-03-10T07:22:39.268Z,8.66
2019-03-10T07:23:24.625Z,8.55
2019-03-10T07:24:24.642Z,8.65
2019-03-10T07:25:24.661Z,8.55
2019-03-10T07:26:24.684Z,8.53
2019-03-10T07:27:24.703Z,8.56
2019-03-10T07:28:24.720Z,8.5
2019-03-10T07:29:24.740Z,8.48
2019-03-10T07:30:24.763Z,8.45
2019-03-10T07:31:24.782Z,8.44
2019-03-10T07:32:24.812Z,8.37
2019-03-10T07:33:24.861Z,8.45
2019-03-10T07:34:39.501Z,8.44
2019-03-10T07:35:24.857Z,8.43
2019-03-10T07:36:24.877Z,8.38
2019-03-10T07:37:39.557Z,8.37
2019-03-10T07:38:24.918Z,8.45
2019-03-10T07:39:24.930Z,8.43
2019-03-10T07:40:24.948Z,8.44
2019-03-10T07:42:24.986Z,8.41
2019-03-10T07:44:25.119Z,8.43
2019-03-10T07:45:25.065Z,8.5
2019-03-10T07:47:25.135Z,8.41
2019-03-10T07:48:25.101Z,8.48
2019-03-10T07:49:25.147Z,8.38
2019-03-10T07:50:39.795Z,8.55
2019-03-10T07:51:25.149Z,8.56
2019-03-10T07:52:25.607Z,8.5
2019-03-10T07:53:25.187Z,8.59
2019-03-10T07:54:25.202Z,8.7
2019-03-10T07:55:25.228Z,8.79
2019-03-10T07:56:25.240Z,8.83
2019-03-10T07:58:25.274Z,8.89
2019-03-10T07:59:25.306Z,8.92
2019-03-10T08:00:25.311Z,8.8
2019-03-10T08:01:25.331Z,8.79
2019-03-10T08:02:25.346Z,8.94
2019-03-10T08:03:26.880Z,8.91
2019-03-10T08:04:25.387Z,9.02
2019-03-10T08:05:25.401Z,9.08
2019-03-10T08:06:25.422Z,9.08
2019-03-10T08:07:25.443Z,9.2
2019-03-10T08:08:25.458Z,9.28
2019-03-10T08:09:40.141Z,9.32
2019-03-10T08:10:25.500Z,9.28
2019-03-10T08:11:25.515Z,9.38
2019-03-10T08:12:25.533Z,9.33
2019-03-10T08:13:25.549Z,9.35
2019-03-10T08:14:25.569Z,9.39
2019-03-10T08:16:25.606Z,9.57
2019-03-10T08:17:27.125Z,9.57
2019-03-10T08:18:25.655Z,9.69
2019-03-10T08:19:25.420Z,9.84
2019-03-10T08:20:40.346Z,9.9
2019-03-10T08:21:25.755Z,9.97
2019-03-10T08:22:25.722Z,10.01
2019-03-10T08:23:25.776Z,9.97
2019-03-10T08:24:25.764Z,9.78
2019-03-10T08:25:40.444Z,9.69
2019-03-10T08:26:25.801Z,9.69
2019-03-10T08:27:25.812Z,9.93
2019-03-10T08:28:25.859Z,9.93
2019-03-10T08:29:25.853Z,10.04
2019-03-10T08:30:25.977Z,10.05
2019-03-10T08:31:25.892Z,10.15
2019-03-10T08:32:25.911Z,10.17
2019-03-10T08:33:40.598Z,10.07
2019-03-10T08:34:25.952Z,10.12
2019-03-10T08:35:25.986Z,10.17
2019-03-10T08:36:25.988Z,10.29
2019-03-10T08:37:26.007Z,10.42
2019-03-10T08:38:26.027Z,10.45
2019-03-10T08:39:26.047Z,10.7
2019-03-10T08:40:26.073Z,10.68
2019-03-10T08:41:40.752Z,10.7
2019-03-10T08:42:26.106Z,10.45
2019-03-10T08:43:26.187Z,10.56
2019-03-10T08:44:26.144Z,10.41
2019-03-10T08:45:26.163Z,10.44
2019-03-10T08:46:26.183Z,10.47
2019-03-10T08:47:26.268Z,10.34
2019-03-10T08:48:26.275Z,10.23
2019-03-10T08:49:26.249Z,9.99
2019-03-10T08:50:26.262Z,10.2
2019-03-10T08:51:26.287Z,10.29
2019-03-10T08:52:26.300Z,10.26
2019-03-10T08:53:26.321Z,10.25
2019-03-10T08:54:26.345Z,10.34
2019-03-10T08:55:26.368Z,10.38
2019-03-10T08:56:26.383Z,10.29
2019-03-10T08:57:41.074Z,10.29
2019-03-10T08:58:41.093Z,10.4
2019-03-10T08:59:26.438Z,10.23
2019-03-10T09:00:26.457Z,10.33
2019-03-10T09:01:26.485Z,10.45
2019-03-10T09:02:26.497Z,10.45
2019-03-10T09:03:26.527Z,10.56
2019-03-10T09:04:26.534Z,10.71
2019-03-10T09:05:26.554Z,10.63
2019-03-10T09:06:26.572Z,10.59
2019-03-10T09:08:26.611Z,10.25
2019-03-10T09:09:26.631Z,10.26
2019-03-10T09:10:26.656Z,10.4
2019-03-10T09:11:26.670Z,10.36
2019-03-10T09:12:41.353Z,10.23
2019-03-10T09:13:26.718Z,10.27
2019-03-10T09:14:26.734Z,10.25
2019-03-10T09:15:26.498Z,10.26
2019-03-10T09:16:26.767Z,10.23
2019-03-10T09:17:26.799Z,10.25
2019-03-10T09:18:26.811Z,10.18
2019-03-10T09:19:26.830Z,10.26
2019-03-10T09:20:26.594Z,10.2
2019-03-10T09:21:41.529Z,10.38
2019-03-10T09:22:26.881Z,10.29
2019-03-10T09:23:26.901Z,10.47
2019-03-10T09:24:41.583Z,10.48
2019-03-10T09:25:26.692Z,10.68
2019-03-10T09:26:26.960Z,10.81
2019-03-10T09:27:28.446Z,11.07
2019-03-10T09:28:26.997Z,11.06
2019-03-10T09:29:27.013Z,10.97
2019-03-10T09:30:26.789Z,10.99
2019-03-10T09:31:27.059Z,10.82
2019-03-10T09:32:27.087Z,10.84
2019-03-10T09:33:27.092Z,10.74
2019-03-10T09:34:27.114Z,10.78
2019-03-10T09:35:27.230Z,10.89
2019-03-10T09:36:27.146Z,10.85
2019-03-10T09:38:27.200Z,10.84
2019-03-10T09:39:27.204Z,10.88
2019-03-10T09:40:27.006Z,10.91
2019-03-10T09:41:27.246Z,10.88
2019-03-10T09:42:27.274Z,11.03
2019-03-10T09:43:27.280Z,10.94
2019-03-10T09:44:41.992Z,10.91
2019-03-10T09:45:27.328Z,11
2019-03-10T09:46:27.341Z,11.06
2019-03-10T09:47:27.354Z,10.91
2019-03-10T09:48:27.387Z,10.76
2019-03-10T09:49:27.403Z,10.74
2019-03-10T09:50:27.420Z,10.82
2019-03-10T09:51:27.434Z,10.63
2019-03-10T09:52:27.452Z,10.67
2019-03-10T09:53:27.493Z,10.61
2019-03-10T09:54:27.507Z,10.61
2019-03-10T09:55:27.508Z,10.74
2019-03-10T09:56:42.192Z,10.68
2019-03-10T09:57:27.561Z,10.61
2019-03-10T09:58:42.228Z,10.61
2019-03-10T09:59:27.582Z,10.74
2019-03-10T10:00:42.023Z,10.78
2019-03-10T10:01:27.623Z,10.81
2019-03-10T10:02:27.646Z,10.84
2019-03-10T10:03:27.658Z,11.03
2019-03-10T10:04:27.685Z,11.28
2019-03-10T10:05:27.697Z,11.42
2019-03-10T10:06:27.717Z,11.33
2019-03-10T10:07:27.740Z,11.39
2019-03-10T10:08:27.762Z,11.46
2019-03-10T10:09:27.783Z,11.47
2019-03-10T10:10:27.794Z,11.58
2019-03-10T10:11:27.812Z,11.49
2019-03-10T10:12:27.839Z,11.54
2019-03-10T10:13:27.855Z,11.58
2019-03-10T10:14:27.868Z,11.47
2019-03-10T10:15:27.888Z,11.51
2019-03-10T10:16:42.573Z,11.29
2019-03-10T10:17:27.925Z,11.25
2019-03-10T10:18:27.954Z,11.28
2019-03-10T10:19:27.966Z,11.24
2019-03-10T10:20:29.309Z,11.22
2019-03-10T10:21:28.111Z,11.03
2019-03-10T10:23:28.048Z,11.11
2019-03-10T10:26:28.099Z,11.03
2019-03-10T10:27:28.128Z,10.96
2019-03-10T10:28:28.145Z,11.11
2019-03-10T10:29:28.165Z,11.1
2019-03-10T10:30:28.178Z,11.11
2019-03-10T10:31:28.193Z,11.22
2019-03-10T10:32:42.877Z,11.25
2019-03-10T10:33:28.234Z,11.27
2019-03-10T10:34:28.004Z,11.25
2019-03-10T10:35:28.292Z,11.32
2019-03-10T10:36:28.290Z,11.39
2019-03-10T10:37:28.309Z,11.43
2019-03-10T10:38:28.333Z,11.51
2019-03-10T10:39:28.352Z,11.29
2019-03-10T10:40:28.374Z,11.25
2019-03-10T10:41:28.388Z,11.22
2019-03-10T10:42:28.414Z,11.11
2019-03-10T10:43:28.429Z,11.07
2019-03-10T10:44:28.444Z,11.15
2019-03-10T10:45:43.125Z,11.11
2019-03-10T10:46:28.479Z,10.92
2019-03-10T10:47:43.164Z,10.86
2019-03-10T10:48:28.520Z,10.76
2019-03-10T10:49:28.567Z,10.74
2019-03-10T10:50:28.590Z,10.71
2019-03-10T10:51:29.781Z,10.79
2019-03-10T10:52:28.665Z,10.73
2019-03-10T10:53:28.434Z,10.86
2019-03-10T10:54:28.675Z,10.91
2019-03-10T10:55:30.493Z,10.97
2019-03-10T10:56:43.349Z,10.86
2019-03-10T10:57:28.698Z,10.71
2019-03-10T10:58:28.707Z,10.68
2019-03-10T10:59:28.729Z,10.48
2019-03-10T11:00:28.757Z,10.51
2019-03-10T11:01:28.764Z,10.41
2019-03-10T11:02:28.783Z,10.4
2019-03-10T11:03:28.803Z,10.4
2019-03-10T11:04:28.821Z,10.51
2019-03-10T11:05:43.516Z,10.52
2019-03-10T11:06:28.861Z,10.51
2019-03-10T11:07:28.899Z,10.51
2019-03-10T11:08:28.893Z,10.33
2019-03-10T11:09:28.939Z,10.44
2019-03-10T11:10:28.933Z,10.47
2019-03-10T11:11:28.949Z,10.38
2019-03-10T11:12:28.966Z,10.22
2019-03-10T11:13:28.996Z,10.33
2019-03-10T11:14:29.015Z,10.36
2019-03-10T11:15:29.032Z,10.55
2019-03-10T11:16:29.064Z,10.67
2019-03-10T11:17:29.064Z,10.64
2019-03-10T11:18:29.077Z,10.59
2019-03-10T11:19:43.764Z,10.79
2019-03-10T11:20:28.867Z,10.76
2019-03-10T11:21:29.139Z,10.7
2019-03-10T11:22:44.212Z,10.79
2019-03-10T11:23:29.172Z,10.81
2019-03-10T11:24:29.206Z,10.94
2019-03-10T11:25:29.211Z,11.11
2019-03-10T11:26:29.230Z,11.02
2019-03-10T11:27:29.248Z,10.92
2019-03-10T11:28:29.270Z,10.97
2019-03-10T11:29:29.290Z,11.11
2019-03-10T11:30:29.312Z,11.14
2019-03-10T11:31:29.323Z,11.24
2019-03-10T11:32:29.343Z,11.37
2019-03-10T11:33:44.024Z,11.15
2019-03-10T11:34:29.381Z,11.02
2019-03-10T11:35:44.062Z,10.97
2019-03-10T11:36:29.420Z,11.03
2019-03-10T11:37:44.110Z,10.91
2019-03-10T11:38:29.454Z,10.89
2019-03-10T11:39:29.475Z,10.71
2019-03-10T11:40:29.504Z,10.63
2019-03-10T11:41:53.224Z,10.52
2019-03-10T11:42:29.539Z,10.45
2019-03-10T11:43:29.555Z,10.36
2019-03-10T11:45:29.593Z,10.25
2019-03-10T11:46:29.606Z,10.23
2019-03-10T11:47:29.675Z,10.2
2019-03-10T11:48:29.644Z,10.17
2019-03-10T11:49:29.672Z,10.04
2019-03-10T11:50:29.681Z,10.18
2019-03-10T11:51:44.362Z,10.18
2019-03-10T11:52:29.742Z,10.18
2019-03-10T11:54:29.758Z,10.04
2019-03-10T11:55:44.349Z,9.93
2019-03-10T11:56:29.791Z,10.11
2019-03-10T11:57:29.810Z,9.99
2019-03-10T11:58:32.406Z,9.83
2019-03-10T11:59:29.846Z,9.86
2019-03-10T12:00:29.868Z,9.68
2019-03-10T12:01:44.551Z,9.46
2019-03-10T12:02:29.903Z,9.54
2019-03-10T12:03:29.923Z,9.47
2019-03-10T12:04:29.949Z,9.47
2019-03-10T12:05:29.961Z,9.39
2019-03-10T12:06:29.975Z,9.35
2019-03-10T12:07:44.657Z,9.28
2019-03-10T12:08:30.011Z,9.29
2019-03-10T12:09:30.031Z,9.36
2019-03-10T12:10:30.050Z,9.28
2019-03-10T12:11:30.073Z,9.31
2019-03-10T12:12:30.086Z,9.26
2019-03-10T12:13:30.109Z,9.38
2019-03-10T12:14:30.124Z,9.4
2019-03-10T12:15:30.139Z,9.28
2019-03-10T12:16:31.148Z,9.39
2019-03-10T12:17:30.187Z,9.11
2019-03-10T12:19:30.209Z,9.04
2019-03-10T12:20:30.230Z,8.87
2019-03-10T12:21:30.261Z,8.91
2019-03-10T12:22:44.928Z,8.89
2019-03-10T12:23:30.282Z,8.89
2019-03-10T12:24:30.302Z,8.89
2019-03-10T12:25:30.319Z,8.83
2019-03-10T12:26:30.336Z,8.89
2019-03-10T12:27:30.359Z,8.83
2019-03-10T12:28:30.374Z,8.94
2019-03-10T12:29:30.398Z,8.76
2019-03-10T12:30:30.406Z,8.86
2019-03-10T12:31:30.178Z,8.98
2019-03-10T12:33:30.465Z,8.92
2019-03-10T12:34:45.146Z,8.76
2019-03-10T12:35:39.119Z,8.74
2019-03-10T12:37:30.537Z,8.83
2019-03-10T12:38:30.550Z,8.86
2019-03-10T12:39:30.568Z,8.94
2019-03-10T12:40:30.589Z,9.05
2019-03-10T12:41:30.605Z,9.05
2019-03-10T12:42:30.627Z,9.15
2019-03-10T12:43:30.640Z,9.08
2019-03-10T12:44:32.925Z,9.1
2019-03-10T12:45:30.693Z,8.92
2019-03-10T12:46:30.697Z,9.05
2019-03-10T12:47:30.720Z,8.94
2019-03-10T12:48:30.738Z,8.87
2019-03-10T12:49:30.750Z,8.89
2019-03-10T12:50:30.768Z,8.94
2019-03-10T12:51:30.784Z,9.13
2019-03-10T12:52:30.808Z,9.15
2019-03-10T12:53:30.814Z,9.05
2019-03-10T12:55:30.853Z,9.08
2019-03-10T12:56:30.875Z,9.01
2019-03-10T12:57:30.888Z,9.01
2019-03-10T12:58:30.915Z,9.04
2019-03-10T12:59:30.926Z,9.08
2019-03-10T13:00:30.944Z,9.13
2019-03-10T13:01:30.958Z,8.98
2019-03-10T13:03:31.060Z,8.76
2019-03-10T13:04:45.680Z,8.81
2019-03-10T13:05:33.113Z,8.81
2019-03-10T13:06:31.060Z,8.84
2019-03-10T13:07:31.070Z,8.81
2019-03-10T13:08:45.747Z,8.98
2019-03-10T13:09:31.110Z,9.01
2019-03-10T13:10:45.785Z,9.02
2019-03-10T13:11:31.142Z,8.95
2019-03-10T13:12:45.947Z,9.01
2019-03-10T13:13:31.174Z,9.08
2019-03-10T13:14:33.317Z,9.08
2019-03-10T13:15:31.212Z,9.08
2019-03-10T13:16:31.230Z,9.01
2019-03-10T13:18:45.947Z,8.95
2019-03-10T13:19:31.285Z,8.95
2019-03-10T13:20:34.101Z,8.89
2019-03-10T13:21:31.390Z,8.94
2019-03-10T13:22:45.999Z,8.79
2019-03-10T13:23:31.358Z,8.65
2019-03-10T13:24:31.121Z,8.73
2019-03-10T13:25:31.390Z,8.62
2019-03-10T13:26:46.071Z,8.62
2019-03-10T13:27:31.425Z,8.65
2019-03-10T13:28:31.445Z,8.68
2019-03-10T13:29:31.461Z,8.7
2019-03-10T13:30:31.477Z,8.58
2019-03-10T13:31:31.499Z,8.5
2019-03-10T13:32:31.515Z,8.48
2019-03-10T13:33:31.530Z,8.48
2019-03-10T13:34:31.547Z,8.52
2019-03-10T13:36:31.622Z,8.5
2019-03-10T13:37:31.601Z,8.48
2019-03-10T13:38:46.282Z,8.56
2019-03-10T13:39:46.300Z,8.59
2019-03-10T13:40:31.657Z,8.56
2019-03-10T13:41:31.672Z,8.56
2019-03-10T13:42:46.356Z,8.5
2019-03-10T13:43:31.713Z,8.47
2019-03-10T13:44:31.729Z,8.45
2019-03-10T13:45:31.741Z,8.55
2019-03-10T13:46:31.760Z,8.56
2019-03-10T13:47:31.778Z,8.41
2019-03-10T13:48:31.810Z,8.41
2019-03-10T13:49:31.813Z,8.36
2019-03-10T13:50:31.836Z,8.45
2019-03-10T13:51:31.852Z,8.44
2019-03-10T13:52:31.875Z,8.45
2019-03-10T13:53:31.894Z,8.56
2019-03-10T13:54:31.904Z,8.44
2019-03-10T13:55:31.918Z,8.38
2019-03-10T13:56:31.935Z,8.4
2019-03-10T13:57:46.619Z,8.43
2019-03-10T13:58:31.725Z,8.33
2019-03-10T13:59:31.989Z,8.41
2019-03-10T14:00:32.011Z,8.43
2019-03-10T14:01:32.042Z,8.43
2019-03-10T14:02:32.040Z,8.62